sensor_id;sensor_type;location;lat;lon;timestamp;pressure;altitude;pressure_sealevel;temperature;humidity
63883;BME280;50047;50.596;30.466;2023-07-08T00:01:40;99330.77;;;21.10;78.32
63883;BME280;50047;50.596;30.466;2023-07-08T00:04:08;99322.83;;;20.98;78.45
63883;BME280;50047;50.596;30.466;2023-07-08T00:06:39;99322.48;;;20.92;78.12
63883;BME280;50047;50.596;30.466;2023-07-08T00:09:10;99322.84;;;20.72;78.99
63883;BME280;50047;50.596;30.466;2023-07-08T00:11:41;99329.78;;;21.10;77.93
63883;BME280;50047;50.596;30.466;2023-07-08T00:14:13;99323.04;;;21.27;76.72
63883;BME280;50047;50.596;30.466;2023-07-08T00:16:44;99322.41;;;21.18;76.30
63883;BME280;50047;50.596;30.466;2023-07-08T00:19:13;99329.94;;;20.85;77.42
63883;BME280;50047;50.596;30.466;2023-07-08T00:21:42;99316.94;;;20.60;78.50
63883;BME280;50047;50.596;30.466;2023-07-08T00:24:12;99322.34;;;20.57;79.57
63883;BME280;50047;50.596;30.466;2023-07-08T00:26:46;99337.34;;;20.85;78.28
63883;BME280;50047;50.596;30.466;2023-07-08T00:29:17;99313.28;;;21.02;77.47
63883;BME280;50047;50.596;30.466;2023-07-08T00:31:45;99311.77;;;20.88;77.50
63883;BME280;50047;50.596;30.466;2023-07-08T00:34:13;99325.23;;;20.69;77.98
63883;BME280;50047;50.596;30.466;2023-07-08T00:36:44;99314.84;;;20.50;79.19
63883;BME280;50047;50.596;30.466;2023-07-08T00:39:16;99319.48;;;20.86;78.04
63883;BME280;50047;50.596;30.466;2023-07-08T00:41:44;99323.10;;;20.92;77.35
63883;BME280;50047;50.596;30.466;2023-07-08T00:44:12;99307.62;;;20.85;77.39
63883;BME280;50047;50.596;30.466;2023-07-08T00:46:52;99311.11;;;20.73;77.64
63883;BME280;50047;50.596;30.466;2023-07-08T00:52:26;99288.39;;;20.59;79.40
63883;BME280;50047;50.596;30.466;2023-07-08T00:54:57;99294.35;;;20.81;78.12
63883;BME280;50047;50.596;30.466;2023-07-08T00:57:26;99284.53;;;20.81;77.82
63883;BME280;50047;50.596;30.466;2023-07-08T01:00:04;99296.83;;;20.65;78.05
63883;BME280;50047;50.596;30.466;2023-07-08T01:02:35;99305.02;;;20.41;79.15
63883;BME280;50047;50.596;30.466;2023-07-08T01:05:09;99312.82;;;20.33;80.08
63883;BME280;50047;50.596;30.466;2023-07-08T01:07:44;99320.04;;;20.68;79.68
63883;BME280;50047;50.596;30.466;2023-07-08T01:10:18;99307.52;;;20.94;77.09
63883;BME280;50047;50.596;30.466;2023-07-08T01:12:51;99315.40;;;20.63;78.31
63883;BME280;50047;50.596;30.466;2023-07-08T01:15:30;99300.77;;;20.41;79.67
63883;BME280;50047;50.596;30.466;2023-07-08T01:18:02;99301.98;;;20.29;80.84
63883;BME280;50047;50.596;30.466;2023-07-08T01:20:33;99293.00;;;20.61;79.82
63883;BME280;50047;50.596;30.466;2023-07-08T01:23:01;99299.37;;;20.83;78.15
63883;BME280;50047;50.596;30.466;2023-07-08T01:25:31;99283.74;;;20.72;78.28
63883;BME280;50047;50.596;30.466;2023-07-08T01:28:01;99281.92;;;20.53;78.79
63883;BME280;50047;50.596;30.466;2023-07-08T01:30:30;99282.97;;;20.36;79.11
63883;BME280;50047;50.596;30.466;2023-07-08T01:33:15;99285.59;;;20.40;79.96
63883;BME280;50047;50.596;30.466;2023-07-08T01:35:45;99278.64;;;20.66;78.52
63883;BME280;50047;50.596;30.466;2023-07-08T01:38:23;99283.94;;;20.68;78.39
63883;BME280;50047;50.596;30.466;2023-07-08T01:40:55;99286.14;;;20.37;79.59
63883;BME280;50047;50.596;30.466;2023-07-08T01:43:24;99277.59;;;20.31;80.51
63883;BME280;50047;50.596;30.466;2023-07-08T01:45:53;99283.36;;;20.65;79.71
63883;BME280;50047;50.596;30.466;2023-07-08T01:48:22;99283.58;;;20.86;78.29
63883;BME280;50047;50.596;30.466;2023-07-08T01:50:57;99279.06;;;20.68;78.53
63883;BME280;50047;50.596;30.466;2023-07-08T01:53:33;99281.59;;;20.47;79.96
63883;BME280;50047;50.596;30.466;2023-07-08T01:56:03;99271.96;;;20.41;80.46
63883;BME280;50047;50.596;30.466;2023-07-08T01:58:34;99266.28;;;20.55;79.78
63883;BME280;50047;50.596;30.466;2023-07-08T02:01:02;99272.30;;;20.80;78.04
63883;BME280;50047;50.596;30.466;2023-07-08T02:03:30;99275.63;;;20.68;77.47
63883;BME280;50047;50.596;30.466;2023-07-08T02:05:58;99266.19;;;20.46;77.93
63883;BME280;50047;50.596;30.466;2023-07-08T02:08:26;99276.64;;;20.22;78.96
63883;BME280;50047;50.596;30.466;2023-07-08T02:10:56;99289.96;;;20.39;79.03
63883;BME280;50047;50.596;30.466;2023-07-08T02:13:28;99276.38;;;20.66;77.03
63883;BME280;50047;50.596;30.466;2023-07-08T02:15:56;99282.79;;;20.44;77.58
63883;BME280;50047;50.596;30.466;2023-07-08T02:18:24;99294.81;;;20.29;77.45
63883;BME280;50047;50.596;30.466;2023-07-08T02:20:52;99276.78;;;19.95;78.92
63883;BME280;50047;50.596;30.466;2023-07-08T02:23:20;99274.55;;;20.08;79.10
63883;BME280;50047;50.596;30.466;2023-07-08T02:25:52;99287.02;;;20.39;77.71
63883;BME280;50047;50.596;30.466;2023-07-08T02:28:20;99287.61;;;20.33;77.55
63883;BME280;50047;50.596;30.466;2023-07-08T02:30:48;99291.55;;;20.18;77.92
63883;BME280;50047;50.596;30.466;2023-07-08T02:33:16;99291.47;;;19.87;79.37
63883;BME280;50047;50.596;30.466;2023-07-08T02:35:47;99289.30;;;19.85;80.12
63883;BME280;50047;50.596;30.466;2023-07-08T02:38:14;99284.03;;;20.30;78.75
63883;BME280;50047;50.596;30.466;2023-07-08T02:40:43;99293.83;;;20.61;76.73
63883;BME280;50047;50.596;30.466;2023-07-08T02:43:13;99288.09;;;20.53;76.21
63883;BME280;50047;50.596;30.466;2023-07-08T02:45:41;99301.69;;;20.25;77.40
63883;BME280;50047;50.596;30.466;2023-07-08T02:48:09;99304.05;;;19.97;78.50
63883;BME280;50047;50.596;30.466;2023-07-08T02:50:37;99300.20;;;19.96;78.84
63883;BME280;50047;50.596;30.466;2023-07-08T02:53:06;99297.54;;;20.36;77.47
63883;BME280;50047;50.596;30.466;2023-07-08T02:55:33;99290.64;;;20.48;76.45
63883;BME280;50047;50.596;30.466;2023-07-08T02:58:01;99313.02;;;20.21;77.35
63883;BME280;50047;50.596;30.466;2023-07-08T03:00:31;99299.59;;;20.16;77.28
63883;BME280;50047;50.596;30.466;2023-07-08T03:02:59;99303.17;;;19.91;78.10
63883;BME280;50047;50.596;30.466;2023-07-08T03:05:28;99324.23;;;20.00;78.73
63883;BME280;50047;50.596;30.466;2023-07-08T03:07:55;99317.73;;;20.36;76.89
63883;BME280;50047;50.596;30.466;2023-07-08T03:10:26;99321.05;;;20.39;76.88
63883;BME280;50047;50.596;30.466;2023-07-08T03:12:57;99330.55;;;20.35;77.02
63883;BME280;50047;50.596;30.466;2023-07-08T03:15:24;99322.77;;;20.19;77.44
63883;BME280;50047;50.596;30.466;2023-07-08T03:17:53;99340.52;;;19.98;78.86
63883;BME280;50047;50.596;30.466;2023-07-08T03:20:25;99307.65;;;20.41;77.43
63883;BME280;50047;50.596;30.466;2023-07-08T03:22:53;99315.90;;;20.44;76.43
63883;BME280;50047;50.596;30.466;2023-07-08T03:25:23;99326.61;;;20.41;75.57
63883;BME280;50047;50.596;30.466;2023-07-08T03:27:52;99315.28;;;20.16;75.57
63883;BME280;50047;50.596;30.466;2023-07-08T03:30:21;99312.80;;;19.97;76.34
63883;BME280;50047;50.596;30.466;2023-07-08T03:32:53;99322.32;;;20.18;76.45
63883;BME280;50047;50.596;30.466;2023-07-08T03:35:22;99325.65;;;20.45;74.86
63883;BME280;50047;50.596;30.466;2023-07-08T03:37:52;99332.91;;;20.44;74.43
63883;BME280;50047;50.596;30.466;2023-07-08T03:40:20;99333.27;;;20.22;75.64
63883;BME280;50047;50.596;30.466;2023-07-08T03:42:48;99348.96;;;20.11;76.31
63883;BME280;50047;50.596;30.466;2023-07-08T03:45:16;99315.52;;;20.15;76.77
63883;BME280;50047;50.596;30.466;2023-07-08T03:47:44;99345.94;;;20.51;75.00
63883;BME280;50047;50.596;30.466;2023-07-08T03:50:19;99359.16;;;20.56;74.83
63883;BME280;50047;50.596;30.466;2023-07-08T03:52:49;99318.46;;;20.53;74.74
63883;BME280;50047;50.596;30.466;2023-07-08T03:55:18;99325.92;;;20.17;75.78
63883;BME280;50047;50.596;30.466;2023-07-08T03:57:47;99331.16;;;20.13;76.66
63883;BME280;50047;50.596;30.466;2023-07-08T04:00:15;99334.58;;;20.52;75.49
63883;BME280;50047;50.596;30.466;2023-07-08T04:02:45;99356.98;;;20.74;73.97
63883;BME280;50047;50.596;30.466;2023-07-08T04:05:22;99339.86;;;20.66;73.27
63883;BME280;50047;50.596;30.466;2023-07-08T04:07:50;99318.63;;;20.36;73.76
63883;BME280;50047;50.596;30.466;2023-07-08T04:10:18;99325.81;;;20.09;75.10
63883;BME280;50047;50.596;30.466;2023-07-08T04:12:46;99341.25;;;20.16;74.79
63883;BME280;50047;50.596;30.466;2023-07-08T04:15:14;99336.52;;;20.48;72.48
63883;BME280;50047;50.596;30.466;2023-07-08T04:17:47;99319.88;;;20.43;72.25
63883;BME280;50047;50.596;30.466;2023-07-08T04:20:19;99319.71;;;20.25;72.74
63883;BME280;50047;50.596;30.466;2023-07-08T04:22:47;99323.84;;;20.17;72.78
63883;BME280;50047;50.596;30.466;2023-07-08T04:25:15;99308.46;;;19.93;74.06
63883;BME280;50047;50.596;30.466;2023-07-08T04:27:45;99312.38;;;19.91;74.21
63883;BME280;50047;50.596;30.466;2023-07-08T04:30:25;99294.84;;;20.27;73.55
63883;BME280;50047;50.596;30.466;2023-07-08T04:32:55;99304.08;;;20.45;71.83
63883;BME280;50047;50.596;30.466;2023-07-08T04:35:26;99286.71;;;20.29;72.16
63883;BME280;50047;50.596;30.466;2023-07-08T04:37:54;99291.31;;;20.07;72.92
63883;BME280;50047;50.596;30.466;2023-07-08T04:40:23;99288.84;;;19.90;73.66
63883;BME280;50047;50.596;30.466;2023-07-08T04:42:52;99271.17;;;19.93;73.81
63883;BME280;50047;50.596;30.466;2023-07-08T04:45:23;99283.89;;;20.29;73.20
63883;BME280;50047;50.596;30.466;2023-07-08T04:47:50;99277.35;;;20.52;71.80
63883;BME280;50047;50.596;30.466;2023-07-08T04:50:22;99273.08;;;20.39;71.37
63883;BME280;50047;50.596;30.466;2023-07-08T04:52:58;99276.69;;;20.20;72.12
63883;BME280;50047;50.596;30.466;2023-07-08T04:55:26;99239.84;;;20.14;72.46
63883;BME280;50047;50.596;30.466;2023-07-08T04:57:54;99257.23;;;20.19;72.20
63883;BME280;50047;50.596;30.466;2023-07-08T05:00:22;99271.23;;;20.55;71.08
63883;BME280;50047;50.596;30.466;2023-07-08T05:02:56;99278.98;;;20.90;69.74
63883;BME280;50047;50.596;30.466;2023-07-08T05:05:25;99266.41;;;20.83;69.20
63883;BME280;50047;50.596;30.466;2023-07-08T05:07:54;99261.30;;;20.64;69.99
63883;BME280;50047;50.596;30.466;2023-07-08T05:10:21;99260.49;;;20.47;70.88
63883;BME280;50047;50.596;30.466;2023-07-08T05:12:50;99265.73;;;20.38;71.35
63883;BME280;50047;50.596;30.466;2023-07-08T05:15:20;99269.09;;;20.28;71.28
63883;BME280;50047;50.596;30.466;2023-07-08T05:17:50;99262.38;;;20.64;70.38
63883;BME280;50047;50.596;30.466;2023-07-08T05:20:19;99287.48;;;20.70;70.28
63883;BME280;50047;50.596;30.466;2023-07-08T05:22:46;99261.20;;;20.62;70.10
63883;BME280;50047;50.596;30.466;2023-07-08T05:25:18;99274.48;;;20.47;70.69
63883;BME280;50047;50.596;30.466;2023-07-08T05:27:47;99274.84;;;20.31;70.56
63883;BME280;50047;50.596;30.466;2023-07-08T05:30:20;99258.80;;;20.24;70.64
63883;BME280;50047;50.596;30.466;2023-07-08T05:32:48;99270.05;;;20.52;69.92
63883;BME280;50047;50.596;30.466;2023-07-08T05:35:16;99285.95;;;20.87;68.52
63883;BME280;50047;50.596;30.466;2023-07-08T05:37:44;99261.88;;;20.85;68.07
63883;BME280;50047;50.596;30.466;2023-07-08T05:40:15;99271.52;;;20.77;68.97
63883;BME280;50047;50.596;30.466;2023-07-08T05:42:43;99272.75;;;20.65;69.26
63883;BME280;50047;50.596;30.466;2023-07-08T05:45:14;99279.41;;;20.45;69.63
63883;BME280;50047;50.596;30.466;2023-07-08T05:47:43;99276.52;;;20.30;70.84
63883;BME280;50047;50.596;30.466;2023-07-08T05:50:13;99212.13;;;20.66;70.50
63883;BME280;50047;50.596;30.466;2023-07-08T05:52:41;99243.82;;;21.05;68.76
63883;BME280;50047;50.596;30.466;2023-07-08T05:55:09;99241.93;;;21.12;68.66
63883;BME280;50047;50.596;30.466;2023-07-08T05:57:37;99232.83;;;20.83;69.17
63883;BME280;50047;50.596;30.466;2023-07-08T06:00:05;99224.05;;;20.79;69.01
63883;BME280;50047;50.596;30.466;2023-07-08T06:02:38;99233.71;;;20.52;69.95
63883;BME280;50047;50.596;30.466;2023-07-08T06:05:08;99223.58;;;20.46;70.81
63883;BME280;50047;50.596;30.466;2023-07-08T06:07:36;99225.44;;;20.85;70.06
63883;BME280;50047;50.596;30.466;2023-07-08T06:10:04;99200.09;;;21.23;68.63
63883;BME280;50047;50.596;30.466;2023-07-08T06:12:32;99250.05;;;21.05;68.13
63883;BME280;50047;50.596;30.466;2023-07-08T06:15:06;99240.96;;;20.84;69.06
63883;BME280;50047;50.596;30.466;2023-07-08T06:17:35;99231.55;;;20.65;69.71
63883;BME280;50047;50.596;30.466;2023-07-08T06:20:03;99245.86;;;20.43;70.14
63883;BME280;50047;50.596;30.466;2023-07-08T06:22:31;99224.34;;;20.39;70.99
63883;BME280;50047;50.596;30.466;2023-07-08T06:25:14;99224.84;;;20.73;69.79
63883;BME280;50047;50.596;30.466;2023-07-08T06:27:42;99230.34;;;20.99;68.60
63883;BME280;50047;50.596;30.466;2023-07-08T06:30:09;99230.76;;;20.99;68.31
63883;BME280;50047;50.596;30.466;2023-07-08T06:32:42;99250.28;;;20.81;68.31
63883;BME280;50047;50.596;30.466;2023-07-08T06:35:11;99262.05;;;20.53;69.29
63883;BME280;50047;50.596;30.466;2023-07-08T06:37:41;99258.54;;;20.45;69.94
63883;BME280;50047;50.596;30.466;2023-07-08T06:40:10;99245.35;;;20.32;70.38
63883;BME280;50047;50.596;30.466;2023-07-08T06:42:40;99255.05;;;20.57;70.10
63883;BME280;50047;50.596;30.466;2023-07-08T06:45:21;99230.70;;;20.99;68.77
63883;BME280;50047;50.596;30.466;2023-07-08T06:47:48;99262.73;;;21.04;67.96
63883;BME280;50047;50.596;30.466;2023-07-08T06:50:18;99266.09;;;20.95;67.43
63883;BME280;50047;50.596;30.466;2023-07-08T06:52:47;99263.74;;;20.62;68.12
63883;BME280;50047;50.596;30.466;2023-07-08T06:55:18;99256.40;;;20.39;68.83
63883;BME280;50047;50.596;30.466;2023-07-08T06:57:46;99272.25;;;20.27;69.21
63883;BME280;50047;50.596;30.466;2023-07-08T07:00:24;99267.86;;;20.12;69.60
63883;BME280;50047;50.596;30.466;2023-07-08T07:02:52;99276.20;;;20.45;68.77
63883;BME280;50047;50.596;30.466;2023-07-08T07:05:23;99254.04;;;20.66;67.23
63883;BME280;50047;50.596;30.466;2023-07-08T07:07:51;99260.39;;;20.87;66.05
63883;BME280;50047;50.596;30.466;2023-07-08T07:10:20;99237.16;;;20.82;66.62
63883;BME280;50047;50.596;30.466;2023-07-08T07:12:49;99276.88;;;20.68;66.82
63883;BME280;50047;50.596;30.466;2023-07-08T07:15:16;99253.02;;;20.56;67.29
63883;BME280;50047;50.596;30.466;2023-07-08T07:17:44;99263.80;;;20.48;67.24
63883;BME280;50047;50.596;30.466;2023-07-08T07:20:12;99259.48;;;20.32;67.25
63883;BME280;50047;50.596;30.466;2023-07-08T07:22:40;99263.11;;;20.23;67.72
63883;BME280;50047;50.596;30.466;2023-07-08T07:25:09;99261.20;;;20.25;68.64
63883;BME280;50047;50.596;30.466;2023-07-08T07:27:36;99264.80;;;20.85;67.30
63883;BME280;50047;50.596;30.466;2023-07-08T07:30:06;99256.70;;;21.03;65.73
63883;BME280;50047;50.596;30.466;2023-07-08T07:32:35;99286.73;;;21.02;65.55
63883;BME280;50047;50.596;30.466;2023-07-08T07:35:06;99264.50;;;20.88;65.20
63883;BME280;50047;50.596;30.466;2023-07-08T07:37:34;99277.58;;;20.60;65.88
63883;BME280;50047;50.596;30.466;2023-07-08T07:40:07;99290.70;;;20.39;66.11
63883;BME280;50047;50.596;30.466;2023-07-08T07:42:44;99263.10;;;20.26;67.65
63883;BME280;50047;50.596;30.466;2023-07-08T07:45:13;99280.20;;;20.16;68.07
63883;BME280;50047;50.596;30.466;2023-07-08T07:47:41;99267.16;;;20.06;68.86
63883;BME280;50047;50.596;30.466;2023-07-08T07:50:10;99280.15;;;20.08;69.92
63883;BME280;50047;50.596;30.466;2023-07-08T07:52:44;99262.63;;;20.42;68.49
63883;BME280;50047;50.596;30.466;2023-07-08T07:55:18;99264.27;;;20.49;68.13
63883;BME280;50047;50.596;30.466;2023-07-08T07:57:49;99270.24;;;20.17;69.10
63883;BME280;50047;50.596;30.466;2023-07-08T08:00:17;99271.16;;;19.89;70.44
63883;BME280;50047;50.596;30.466;2023-07-08T08:02:45;99261.35;;;19.75;70.44
63883;BME280;50047;50.596;30.466;2023-07-08T08:05:13;99282.91;;;19.67;71.07
63883;BME280;50047;50.596;30.466;2023-07-08T08:07:41;99309.56;;;19.90;70.88
63883;BME280;50047;50.596;30.466;2023-07-08T08:10:09;99283.42;;;20.20;71.08
63883;BME280;50047;50.596;30.466;2023-07-08T08:12:40;99267.33;;;20.01;71.28
63883;BME280;50047;50.596;30.466;2023-07-08T08:15:22;99265.96;;;19.79;72.07
63883;BME280;50047;50.596;30.466;2023-07-08T08:17:50;99269.25;;;19.60;72.43
63883;BME280;50047;50.596;30.466;2023-07-08T08:20:23;99281.26;;;19.45;73.74
63883;BME280;50047;50.596;30.466;2023-07-08T08:22:52;99277.16;;;19.89;72.32
63883;BME280;50047;50.596;30.466;2023-07-08T08:25:24;99272.58;;;20.17;70.59
63883;BME280;50047;50.596;30.466;2023-07-08T08:27:53;99275.48;;;20.00;70.63
63883;BME280;50047;50.596;30.466;2023-07-08T08:30:20;99281.80;;;19.96;70.12
63883;BME280;50047;50.596;30.466;2023-07-08T08:32:48;99279.27;;;19.81;71.00
63883;BME280;50047;50.596;30.466;2023-07-08T08:35:16;99280.14;;;19.66;70.56
63883;BME280;50047;50.596;30.466;2023-07-08T08:37:44;99266.23;;;19.56;70.38
63883;BME280;50047;50.596;30.466;2023-07-08T08:40:17;99280.71;;;19.91;68.35
63883;BME280;50047;50.596;30.466;2023-07-08T08:42:53;99297.39;;;20.23;67.22
63883;BME280;50047;50.596;30.466;2023-07-08T08:45:26;99273.83;;;20.17;67.23
63883;BME280;50047;50.596;30.466;2023-07-08T08:48:08;99292.15;;;19.87;67.47
63883;BME280;50047;50.596;30.466;2023-07-08T08:50:47;99288.02;;;19.77;67.48
63883;BME280;50047;50.596;30.466;2023-07-08T08:53:20;99300.80;;;19.64;68.93
63883;BME280;50047;50.596;30.466;2023-07-08T08:56:03;99304.29;;;19.47;69.23
63883;BME280;50047;50.596;30.466;2023-07-08T08:58:39;99294.55;;;19.38;69.77
63883;BME280;50047;50.596;30.466;2023-07-08T09:01:15;99318.60;;;19.86;68.58
63883;BME280;50047;50.596;30.466;2023-07-08T09:03:53;99286.52;;;20.05;68.03
63883;BME280;50047;50.596;30.466;2023-07-08T09:06:27;99301.45;;;19.98;67.90
63883;BME280;50047;50.596;30.466;2023-07-08T09:08:57;99306.01;;;19.77;68.61
63883;BME280;50047;50.596;30.466;2023-07-08T09:12:03;99314.96;;;19.47;69.21
63883;BME280;50047;50.596;30.466;2023-07-08T09:14:33;99340.30;;;19.21;71.13
63883;BME280;50047;50.596;30.466;2023-07-08T09:17:17;99339.23;;;19.01;70.52
63883;BME280;50047;50.596;30.466;2023-07-08T09:19:49;99313.71;;;19.35;69.79
63883;BME280;50047;50.596;30.466;2023-07-08T09:25:03;99338.91;;;19.39;70.29
63883;BME280;50047;50.596;30.466;2023-07-08T09:27:32;99322.52;;;19.04;71.42
63883;BME280;50047;50.596;30.466;2023-07-08T09:30:00;99346.21;;;18.85;70.93
63883;BME280;50047;50.596;30.466;2023-07-08T09:32:28;99329.77;;;18.73;71.92
63883;BME280;50047;50.596;30.466;2023-07-08T09:35:02;99324.17;;;18.98;71.03
63883;BME280;50047;50.596;30.466;2023-07-08T09:37:33;99324.67;;;19.38;69.56
63883;BME280;50047;50.596;30.466;2023-07-08T09:43:00;99318.54;;;19.62;66.04
63883;BME280;50047;50.596;30.466;2023-07-08T09:45:40;99351.93;;;19.58;65.79
63883;BME280;50047;50.596;30.466;2023-07-08T09:48:23;99354.01;;;19.51;66.21
63883;BME280;50047;50.596;30.466;2023-07-08T09:50:53;99350.13;;;19.54;66.52
63883;BME280;50047;50.596;30.466;2023-07-08T09:53:21;99349.29;;;19.51;66.87
63883;BME280;50047;50.596;30.466;2023-07-08T09:55:50;99334.60;;;19.51;66.13
63883;BME280;50047;50.596;30.466;2023-07-08T09:58:24;99327.52;;;19.76;66.01
63883;BME280;50047;50.596;30.466;2023-07-08T10:00:55;99319.99;;;20.42;64.62
63883;BME280;50047;50.596;30.466;2023-07-08T10:03:28;99327.95;;;20.67;62.59
63883;BME280;50047;50.596;30.466;2023-07-08T10:06:05;99345.86;;;20.73;61.60
63883;BME280;50047;50.596;30.466;2023-07-08T10:08:40;99327.11;;;20.75;61.87
63883;BME280;50047;50.596;30.466;2023-07-08T10:13:47;99310.92;;;20.69;61.98
63883;BME280;50047;50.596;30.466;2023-07-08T10:16:35;99336.80;;;20.66;60.71
63883;BME280;50047;50.596;30.466;2023-07-08T10:19:13;99315.59;;;20.67;60.60
63883;BME280;50047;50.596;30.466;2023-07-08T10:22:08;99329.34;;;20.70;59.93
63883;BME280;50047;50.596;30.466;2023-07-08T10:27:31;99312.52;;;20.84;60.18
63883;BME280;50047;50.596;30.466;2023-07-08T10:30:20;99340.48;;;20.85;60.22
63883;BME280;50047;50.596;30.466;2023-07-08T10:33:24;99333.72;;;20.91;59.80
63883;BME280;50047;50.596;30.466;2023-07-08T10:36:18;99328.88;;;20.96;59.81
63883;BME280;50047;50.596;30.466;2023-07-08T10:44:22;99347.40;;;21.03;59.32
63883;BME280;50047;50.596;30.466;2023-07-08T10:46:59;99335.80;;;21.06;59.28
63883;BME280;50047;50.596;30.466;2023-07-08T10:53:23;99337.55;;;21.13;58.40
63883;BME280;50047;50.596;30.466;2023-07-08T10:55:59;99338.81;;;21.08;58.67
63883;BME280;50047;50.596;30.466;2023-07-08T11:10:13;99338.14;;;21.20;56.96
63883;BME280;50047;50.596;30.466;2023-07-08T11:13:05;99352.91;;;21.21;56.08
63883;BME280;50047;50.596;30.466;2023-07-08T11:15:42;99335.61;;;21.25;56.87
63883;BME280;50047;50.596;30.466;2023-07-08T11:21:11;99341.12;;;21.42;56.19
63883;BME280;50047;50.596;30.466;2023-07-08T11:23:58;99333.05;;;21.44;55.59
63883;BME280;50047;50.596;30.466;2023-07-08T11:26:33;99327.42;;;21.51;55.98
63883;BME280;50047;50.596;30.466;2023-07-08T11:29:03;99325.38;;;21.53;55.42
63883;BME280;50047;50.596;30.466;2023-07-08T11:31:36;99321.54;;;21.52;54.64
63883;BME280;50047;50.596;30.466;2023-07-08T11:34:05;99321.51;;;21.53;53.20
63883;BME280;50047;50.596;30.466;2023-07-08T11:36:32;99340.40;;;21.53;53.35
63883;BME280;50047;50.596;30.466;2023-07-08T11:39:00;99338.88;;;21.58;54.62
63883;BME280;50047;50.596;30.466;2023-07-08T11:41:31;99331.10;;;21.62;54.98
63883;BME280;50047;50.596;30.466;2023-07-08T11:44:03;99335.94;;;21.64;54.84
63883;BME280;50047;50.596;30.466;2023-07-08T11:46:33;99334.39;;;21.68;54.89
63883;BME280;50047;50.596;30.466;2023-07-08T11:49:05;99331.78;;;21.73;54.57
63883;BME280;50047;50.596;30.466;2023-07-08T11:51:37;99318.15;;;21.76;54.52
63883;BME280;50047;50.596;30.466;2023-07-08T11:54:30;99316.83;;;21.82;55.12
63883;BME280;50047;50.596;30.466;2023-07-08T11:57:06;99305.96;;;21.93;54.89
63883;BME280;50047;50.596;30.466;2023-07-08T11:59:38;99300.45;;;22.01;54.34
63883;BME280;50047;50.596;30.466;2023-07-08T12:02:15;99315.58;;;22.04;54.12
63883;BME280;50047;50.596;30.466;2023-07-08T12:07:52;99310.71;;;22.08;54.37
63883;BME280;50047;50.596;30.466;2023-07-08T12:10:49;99313.27;;;22.16;55.05
63883;BME280;50047;50.596;30.466;2023-07-08T12:13:19;99298.63;;;22.23;54.77
63883;BME280;50047;50.596;30.466;2023-07-08T12:15:49;99300.08;;;22.25;54.17
63883;BME280;50047;50.596;30.466;2023-07-08T12:18:25;99302.80;;;22.31;54.93
63883;BME280;50047;50.596;30.466;2023-07-08T12:20:57;99297.91;;;22.31;54.52
63883;BME280;50047;50.596;30.466;2023-07-08T12:23:28;99304.03;;;22.32;54.96
63883;BME280;50047;50.596;30.466;2023-07-08T12:25:57;99281.18;;;22.36;55.28
63883;BME280;50047;50.596;30.466;2023-07-08T12:28:26;99289.73;;;22.42;54.43
63883;BME280;50047;50.596;30.466;2023-07-08T12:30:54;99261.12;;;22.44;52.79
63883;BME280;50047;50.596;30.466;2023-07-08T12:33:29;99259.94;;;22.41;52.22
63883;BME280;50047;50.596;30.466;2023-07-08T12:35:59;99277.92;;;22.41;52.22
63883;BME280;50047;50.596;30.466;2023-07-08T12:38:39;99263.48;;;22.47;53.04
63883;BME280;50047;50.596;30.466;2023-07-08T12:41:20;99279.31;;;22.53;52.96
63883;BME280;50047;50.596;30.466;2023-07-08T12:43:49;99267.39;;;22.47;52.53
63883;BME280;50047;50.596;30.466;2023-07-08T12:46:21;99269.06;;;22.47;52.70
63883;BME280;50047;50.596;30.466;2023-07-08T12:48:49;99283.68;;;22.48;53.01
63883;BME280;50047;50.596;30.466;2023-07-08T12:51:25;99291.58;;;22.40;53.45
63883;BME280;50047;50.596;30.466;2023-07-08T12:53:53;99296.03;;;22.39;53.37
63883;BME280;50047;50.596;30.466;2023-07-08T12:56:23;99295.20;;;22.39;53.22
63883;BME280;50047;50.596;30.466;2023-07-08T12:58:56;99290.95;;;22.37;53.20
63883;BME280;50047;50.596;30.466;2023-07-08T13:01:28;99294.80;;;22.34;52.93
63883;BME280;50047;50.596;30.466;2023-07-08T13:04:02;99304.25;;;22.32;53.61
63883;BME280;50047;50.596;30.466;2023-07-08T13:06:32;99289.93;;;22.33;53.19
63883;BME280;50047;50.596;30.466;2023-07-08T13:09:35;99312.10;;;22.29;53.14
63883;BME280;50047;50.596;30.466;2023-07-08T13:12:12;99301.11;;;22.31;53.32
63883;BME280;50047;50.596;30.466;2023-07-08T13:14:42;99312.71;;;22.33;53.32
63883;BME280;50047;50.596;30.466;2023-07-08T13:17:15;99309.99;;;22.33;52.86
63883;BME280;50047;50.596;30.466;2023-07-08T13:19:44;99320.27;;;22.26;51.79
63883;BME280;50047;50.596;30.466;2023-07-08T13:22:18;99315.63;;;22.25;50.88
63883;BME280;50047;50.596;30.466;2023-07-08T13:24:48;99334.23;;;22.20;50.37
63883;BME280;50047;50.596;30.466;2023-07-08T13:27:24;99343.23;;;22.22;50.52
63883;BME280;50047;50.596;30.466;2023-07-08T13:30:04;99331.75;;;22.23;50.67
63883;BME280;50047;50.596;30.466;2023-07-08T13:32:37;99314.56;;;22.24;50.49
63883;BME280;50047;50.596;30.466;2023-07-08T13:35:05;99314.60;;;22.30;50.26
63883;BME280;50047;50.596;30.466;2023-07-08T13:37:47;99325.86;;;22.31;50.40
63883;BME280;50047;50.596;30.466;2023-07-08T13:40:17;99324.39;;;22.29;50.29
63883;BME280;50047;50.596;30.466;2023-07-08T13:42:49;99303.66;;;22.39;50.98
63883;BME280;50047;50.596;30.466;2023-07-08T13:45:27;99313.19;;;22.44;50.14
63883;BME280;50047;50.596;30.466;2023-07-08T13:48:11;99314.21;;;22.48;49.95
63883;BME280;50047;50.596;30.466;2023-07-08T13:50:46;99304.50;;;22.48;50.00
63883;BME280;50047;50.596;30.466;2023-07-08T13:53:17;99311.96;;;22.50;50.26
63883;BME280;50047;50.596;30.466;2023-07-08T13:55:46;99312.35;;;22.50;50.16